(°C)
(°C)
VJV
VJV
VJV
VJV
VJV
V
V
(km/h)
10-17
10-17
9-16
9-15
9-15
9-15
9-15
(mm)
0
0
0
0
0
0
0
(%)
1
0
0
0
0
0
0

Výška Slnka nad obzorom

/ -21°
sun-icon
UV 1
06:05
18:12
Zmenšujúci sa polmesiac (231°)
18:33
12:04

Správy METAR pre lokalitu 64.6°S 40.72°V (ULAA)

Čas Podmienky Teplota/
Rosný bod
Vietor Viditeľnosť Počasie Oblaky Tlak Zmeniť Nespracované
VFR 8°C / 5°C 130º variable 090º to 160º 4kt >10km - Scattered Clouds 3000ft 1006 No Significant change ULAA 251830Z 13002MPS 090V160 9999 SCT030 08/05 Q1006 R08/CLRD70 NOSIG RMK QFE753/1004
VFR 9°C / 5°C 130º variable 090º to 170º 4kt >10km - Scattered Clouds 3000ft 1005 No Significant change ULAA 251800Z 13002MPS 090V170 9999 SCT030 09/05 Q1005 R08/CLRD70 NOSIG RMK QFE753/1004
VFR 9°C / 6°C 140º variable 100º to 170º 4kt >10km - Scattered Clouds 3000ft 1005 No Significant change ULAA 251730Z 14002MPS 100V170 9999 SCT030 09/06 Q1005 R08/CLRD70 NOSIG RMK QFE753/1004
VFR 10°C / 5°C 160º variable 120º to 210º 4kt >10km - Scattered Clouds 3000ft 1005 No Significant change ULAA 251700Z 16002MPS 120V210 9999 SCT030 10/05 Q1005 R08/CLRD70 NOSIG RMK QFE753/1004
VFR 10°C / 6°C 150º variable 110º to 200º 4kt >10km - Scattered Clouds 3000ft 1005 No Significant change ULAA 251630Z 15002MPS 110V200 9999 SCT030 10/06 Q1005 R08/CLRD70 NOSIG RMK QFE753/1004
VFR 10°C / 6°C 150º variable 100º to 200º 6kt >10km - Scattered Clouds 3000ft 1005 No Significant change ULAA 251600Z 15003MPS 100V200 9999 SCT030 10/06 Q1005 R08/CLRD70 NOSIG RMK QFE753/1004
VFR 10°C / 6°C 150º variable 110º to 190º 6kt >10km - Scattered Clouds 3000ft 1005 No Significant change ULAA 251530Z 15003MPS 110V190 9999 SCT030 10/06 Q1005 R08/CLRD70 NOSIG RMK QFE753/1004
VFR 10°C / 6°C 120º 4kt >10km - Scattered Clouds 3000ft 1005 No Significant change ULAA 251500Z 12002MPS 9999 SCT030 10/06 Q1005 R08/CLRD70 NOSIG RMK QFE752/1003
VFR 10°C / 6°C 130º variable 100º to 170º 4kt >10km - Scattered Clouds 3000ft 1004 No Significant change ULAA 251430Z 13002MPS 100V170 9999 SCT030 10/06 Q1004 R08/CLRD70 NOSIG RMK QFE752/1003
VFR 11°C / 6°C 150º variable 110º to 200º 4kt >10km - Scattered Clouds 3000ft 1004 No Significant change ULAA 251400Z 15002MPS 110V200 9999 SCT030 11/06 Q1004 R08/CLRD70 NOSIG RMK QFE752/1003
MVFR 12°C / 6°C 160º variable 090º to 210º 6kt >10km - Broken Clouds 3000ft 1004 No Significant change ULAA 251330Z 16003MPS 090V210 9999 BKN030 12/06 Q1004 R08/CLRD70 NOSIG RMK QFE752/1003
13°C / 6°C 170º variable 100º to 220º 6kt >10km - 1005 No Significant change. Runway 08: Damp, 51-100% contamination with <1mm, friction coefficient 0.65. ULAA 251300Z 17003MPS 100V220 9999 BKN/// 13/06 Q1005 R08/190065 NOSIG RMK QFE752/1003
13°C / 7°C 150º variable 100º to 220º 10kt >10km - 1005 No Significant change. Runway 08: Damp, 51-100% contamination with <1mm, friction coefficient 0.65. ULAA 251230Z 15005MPS 100V220 9999 BKN/// 13/07 Q1005 R08/190065 NOSIG RMK QFE752/1003
VFR 13°C / 6°C 140º variable 110º to 200º 10kt >10km - Scattered Clouds 3000ft 1005 No Significant change. Runway 08: Damp, 51-100% contamination with <1mm, friction coefficient 0.65. ULAA 251200Z 14005MPS 110V200 9999 SCT030 13/06 Q1005 R08/190065 NOSIG RMK QFE752/1003
MVFR 12°C / 6°C 180º variable 120º to 210º 8kt >10km - Broken Clouds 3000ft 1005 No Significant change. Runway 08: Wet or puddles, 51-100% contamination with <1mm, friction coefficient 0.60. ULAA 251130Z 18004MPS 120V210 9999 BKN030 12/06 Q1005 R08/290060 NOSIG RMK QFE753/1004
MVFR 12°C / 6°C 180º variable 140º to 220º 8kt >10km - Broken Clouds 2700ft 1005 No Significant change. Runway 08: Wet or puddles, 51-100% contamination with <1mm, friction coefficient 0.60. ULAA 251100Z 18004MPS 140V220 9999 BKN027 12/06 Q1005 R08/290060 NOSIG RMK QFE753/1004
MVFR 13°C / 6°C 190º variable 140º to 240º 8kt >10km - Broken Clouds 2700ft 1005 No Significant change. Runway 08: Wet or puddles, 51-100% contamination with <1mm, friction coefficient 0.60. ULAA 251030Z 19004MPS 140V240 9999 BKN027 13/06 Q1005 R08/290060 NOSIG RMK QFE752/1003
MVFR 12°C / 6°C 180º variable 150º to 210º 10kt >10km - Broken Clouds 2600ft 1004 No Significant change. Runway 08: Wet or puddles, 51-100% contamination with <1mm, friction coefficient 0.60. ULAA 251000Z 18005MPS 150V210 9999 BKN026 12/06 Q1004 R08/290060 NOSIG RMK QFE752/1003
MVFR 12°C / 7°C 160º variable 100º to 220º 6kt >10km - Broken Clouds 2600ft 1004 No Significant change. Runway 08: Wet or puddles, 51-100% contamination with <1mm, friction coefficient 0.60. ULAA 250930Z 16003MPS 100V220 9999 BKN026 12/07 Q1004 R08/290060 NOSIG RMK QFE752/1003
MVFR 11°C / 7°C 180º variable 140º to 210º 10kt >10km - Broken Clouds 3000ft 1005 No Significant change. Runway 08: Wet or puddles, 51-100% contamination with <1mm, friction coefficient 0.60. ULAA 250900Z 18005MPS 140V210 9999 BKN030 11/07 Q1005 R08/290060 NOSIG RMK QFE752/1003
MVFR 11°C / 7°C 180º variable 150º to 210º 8kt >10km - Broken Clouds 1700ft 1005 No Significant change. Runway 08: Wet or puddles, 51-100% contamination with <1mm, friction coefficient 0.60. ULAA 250830Z 18004MPS 150V210 9999 BKN017 11/07 Q1005 R08/290060 NOSIG RMK QFE752/1003
MVFR 11°C / 8°C 180º variable 130º to 210º 8kt >10km - Broken Clouds 1500ft 1005 No Significant change. Runway 08: Wet or puddles, 51-100% contamination with <1mm, friction coefficient 0.60. ULAA 250800Z 18004MPS 130V210 9999 BKN015 11/08 Q1005 R08/290060 NOSIG RMK QFE752/1003
MVFR 10°C / 8°C 170º variable 120º to 230º 6kt >10km - Overcast 1400ft 1005 No Significant change. Runway 08: Wet or puddles, 51-100% contamination with <1mm, friction coefficient 0.60. ULAA 250730Z 17003MPS 120V230 9999 OVC014 10/08 Q1005 R08/290060 NOSIG RMK QFE753/1004
MVFR 10°C / 8°C 160º variable 100º to 220º 6kt >10km - Overcast 1300ft 1005 No Significant change. Runway 08: Wet or puddles, 51-100% contamination with <1mm, friction coefficient 0.60. ULAA 250700Z 16003MPS 100V220 9999 OVC013 10/08 Q1005 R08/290060 NOSIG RMK QFE753/1004

VFR

8°C / 5°C

[Viac]
Vietor 130º variable 090º to 160º 4kt
Viditeľnosť >10km
Počasie -
Oblaky Scattered Clouds 3000ft
Tlak 1006
Zmeniť No Significant change
Nespracované ULAA 251830Z 13002MPS 090V160 9999 SCT030 08/05 Q1006 R08/CLRD70 NOSIG RMK QFE753/1004

VFR

9°C / 5°C

[Viac]
Vietor 130º variable 090º to 170º 4kt
Viditeľnosť >10km
Počasie -
Oblaky Scattered Clouds 3000ft
Tlak 1005
Zmeniť No Significant change
Nespracované ULAA 251800Z 13002MPS 090V170 9999 SCT030 09/05 Q1005 R08/CLRD70 NOSIG RMK QFE753/1004

VFR

9°C / 6°C

[Viac]
Vietor 140º variable 100º to 170º 4kt
Viditeľnosť >10km
Počasie -
Oblaky Scattered Clouds 3000ft
Tlak 1005
Zmeniť No Significant change
Nespracované ULAA 251730Z 14002MPS 100V170 9999 SCT030 09/06 Q1005 R08/CLRD70 NOSIG RMK QFE753/1004

VFR

10°C / 5°C

[Viac]
Vietor 160º variable 120º to 210º 4kt
Viditeľnosť >10km
Počasie -
Oblaky Scattered Clouds 3000ft
Tlak 1005
Zmeniť No Significant change
Nespracované ULAA 251700Z 16002MPS 120V210 9999 SCT030 10/05 Q1005 R08/CLRD70 NOSIG RMK QFE753/1004

VFR

10°C / 6°C

[Viac]
Vietor 150º variable 110º to 200º 4kt
Viditeľnosť >10km
Počasie -
Oblaky Scattered Clouds 3000ft
Tlak 1005
Zmeniť No Significant change
Nespracované ULAA 251630Z 15002MPS 110V200 9999 SCT030 10/06 Q1005 R08/CLRD70 NOSIG RMK QFE753/1004

VFR

10°C / 6°C

[Viac]
Vietor 150º variable 100º to 200º 6kt
Viditeľnosť >10km
Počasie -
Oblaky Scattered Clouds 3000ft
Tlak 1005
Zmeniť No Significant change
Nespracované ULAA 251600Z 15003MPS 100V200 9999 SCT030 10/06 Q1005 R08/CLRD70 NOSIG RMK QFE753/1004

VFR

10°C / 6°C

[Viac]
Vietor 150º variable 110º to 190º 6kt
Viditeľnosť >10km
Počasie -
Oblaky Scattered Clouds 3000ft
Tlak 1005
Zmeniť No Significant change
Nespracované ULAA 251530Z 15003MPS 110V190 9999 SCT030 10/06 Q1005 R08/CLRD70 NOSIG RMK QFE753/1004

VFR

10°C / 6°C

[Viac]
Vietor 120º 4kt
Viditeľnosť >10km
Počasie -
Oblaky Scattered Clouds 3000ft
Tlak 1005
Zmeniť No Significant change
Nespracované ULAA 251500Z 12002MPS 9999 SCT030 10/06 Q1005 R08/CLRD70 NOSIG RMK QFE752/1003

VFR

10°C / 6°C

[Viac]
Vietor 130º variable 100º to 170º 4kt
Viditeľnosť >10km
Počasie -
Oblaky Scattered Clouds 3000ft
Tlak 1004
Zmeniť No Significant change
Nespracované ULAA 251430Z 13002MPS 100V170 9999 SCT030 10/06 Q1004 R08/CLRD70 NOSIG RMK QFE752/1003

VFR

11°C / 6°C

[Viac]
Vietor 150º variable 110º to 200º 4kt
Viditeľnosť >10km
Počasie -
Oblaky Scattered Clouds 3000ft
Tlak 1004
Zmeniť No Significant change
Nespracované ULAA 251400Z 15002MPS 110V200 9999 SCT030 11/06 Q1004 R08/CLRD70 NOSIG RMK QFE752/1003

MVFR

12°C / 6°C

[Viac]
Vietor 160º variable 090º to 210º 6kt
Viditeľnosť >10km
Počasie -
Oblaky Broken Clouds 3000ft
Tlak 1004
Zmeniť No Significant change
Nespracované ULAA 251330Z 16003MPS 090V210 9999 BKN030 12/06 Q1004 R08/CLRD70 NOSIG RMK QFE752/1003

13°C / 6°C

[Viac]
Vietor 170º variable 100º to 220º 6kt
Viditeľnosť >10km
Počasie -
Oblaky
Tlak 1005
Zmeniť No Significant change. Runway 08: Damp, 51-100% contamination with <1mm, friction coefficient 0.65.
Nespracované ULAA 251300Z 17003MPS 100V220 9999 BKN/// 13/06 Q1005 R08/190065 NOSIG RMK QFE752/1003

13°C / 7°C

[Viac]
Vietor 150º variable 100º to 220º 10kt
Viditeľnosť >10km
Počasie -
Oblaky
Tlak 1005
Zmeniť No Significant change. Runway 08: Damp, 51-100% contamination with <1mm, friction coefficient 0.65.
Nespracované ULAA 251230Z 15005MPS 100V220 9999 BKN/// 13/07 Q1005 R08/190065 NOSIG RMK QFE752/1003

VFR

13°C / 6°C

[Viac]
Vietor 140º variable 110º to 200º 10kt
Viditeľnosť >10km
Počasie -
Oblaky Scattered Clouds 3000ft
Tlak 1005
Zmeniť No Significant change. Runway 08: Damp, 51-100% contamination with <1mm, friction coefficient 0.65.
Nespracované ULAA 251200Z 14005MPS 110V200 9999 SCT030 13/06 Q1005 R08/190065 NOSIG RMK QFE752/1003

MVFR

12°C / 6°C

[Viac]
Vietor 180º variable 120º to 210º 8kt
Viditeľnosť >10km
Počasie -
Oblaky Broken Clouds 3000ft
Tlak 1005
Zmeniť No Significant change. Runway 08: Wet or puddles, 51-100% contamination with <1mm, friction coefficient 0.60.
Nespracované ULAA 251130Z 18004MPS 120V210 9999 BKN030 12/06 Q1005 R08/290060 NOSIG RMK QFE753/1004

MVFR

12°C / 6°C

[Viac]
Vietor 180º variable 140º to 220º 8kt
Viditeľnosť >10km
Počasie -
Oblaky Broken Clouds 2700ft
Tlak 1005
Zmeniť No Significant change. Runway 08: Wet or puddles, 51-100% contamination with <1mm, friction coefficient 0.60.
Nespracované ULAA 251100Z 18004MPS 140V220 9999 BKN027 12/06 Q1005 R08/290060 NOSIG RMK QFE753/1004

MVFR

13°C / 6°C

[Viac]
Vietor 190º variable 140º to 240º 8kt
Viditeľnosť >10km
Počasie -
Oblaky Broken Clouds 2700ft
Tlak 1005
Zmeniť No Significant change. Runway 08: Wet or puddles, 51-100% contamination with <1mm, friction coefficient 0.60.
Nespracované ULAA 251030Z 19004MPS 140V240 9999 BKN027 13/06 Q1005 R08/290060 NOSIG RMK QFE752/1003

MVFR

12°C / 6°C

[Viac]
Vietor 180º variable 150º to 210º 10kt
Viditeľnosť >10km
Počasie -
Oblaky Broken Clouds 2600ft
Tlak 1004
Zmeniť No Significant change. Runway 08: Wet or puddles, 51-100% contamination with <1mm, friction coefficient 0.60.
Nespracované ULAA 251000Z 18005MPS 150V210 9999 BKN026 12/06 Q1004 R08/290060 NOSIG RMK QFE752/1003

MVFR

12°C / 7°C

[Viac]
Vietor 160º variable 100º to 220º 6kt
Viditeľnosť >10km
Počasie -
Oblaky Broken Clouds 2600ft
Tlak 1004
Zmeniť No Significant change. Runway 08: Wet or puddles, 51-100% contamination with <1mm, friction coefficient 0.60.
Nespracované ULAA 250930Z 16003MPS 100V220 9999 BKN026 12/07 Q1004 R08/290060 NOSIG RMK QFE752/1003

MVFR

11°C / 7°C

[Viac]
Vietor 180º variable 140º to 210º 10kt
Viditeľnosť >10km
Počasie -
Oblaky Broken Clouds 3000ft
Tlak 1005
Zmeniť No Significant change. Runway 08: Wet or puddles, 51-100% contamination with <1mm, friction coefficient 0.60.
Nespracované ULAA 250900Z 18005MPS 140V210 9999 BKN030 11/07 Q1005 R08/290060 NOSIG RMK QFE752/1003

MVFR

11°C / 7°C

[Viac]
Vietor 180º variable 150º to 210º 8kt
Viditeľnosť >10km
Počasie -
Oblaky Broken Clouds 1700ft
Tlak 1005
Zmeniť No Significant change. Runway 08: Wet or puddles, 51-100% contamination with <1mm, friction coefficient 0.60.
Nespracované ULAA 250830Z 18004MPS 150V210 9999 BKN017 11/07 Q1005 R08/290060 NOSIG RMK QFE752/1003

MVFR

11°C / 8°C

[Viac]
Vietor 180º variable 130º to 210º 8kt
Viditeľnosť >10km
Počasie -
Oblaky Broken Clouds 1500ft
Tlak 1005
Zmeniť No Significant change. Runway 08: Wet or puddles, 51-100% contamination with <1mm, friction coefficient 0.60.
Nespracované ULAA 250800Z 18004MPS 130V210 9999 BKN015 11/08 Q1005 R08/290060 NOSIG RMK QFE752/1003

MVFR

10°C / 8°C

[Viac]
Vietor 170º variable 120º to 230º 6kt
Viditeľnosť >10km
Počasie -
Oblaky Overcast 1400ft
Tlak 1005
Zmeniť No Significant change. Runway 08: Wet or puddles, 51-100% contamination with <1mm, friction coefficient 0.60.
Nespracované ULAA 250730Z 17003MPS 120V230 9999 OVC014 10/08 Q1005 R08/290060 NOSIG RMK QFE753/1004

MVFR

10°C / 8°C

[Viac]
Vietor 160º variable 100º to 220º 6kt
Viditeľnosť >10km
Počasie -
Oblaky Overcast 1300ft
Tlak 1005
Zmeniť No Significant change. Runway 08: Wet or puddles, 51-100% contamination with <1mm, friction coefficient 0.60.
Nespracované ULAA 250700Z 16003MPS 100V220 9999 OVC013 10/08 Q1005 R08/290060 NOSIG RMK QFE753/1004

Správy TAF pre lokalitu 64.6°S 40.72°V (ULAA)

From till


From till Wind 130º 6kt. Visibility 10km or more. Broken Clouds 1700ft.
Temporarly from till Wind variable 2kt. Visibility 498.895m. Light Showers Rain Fog . Broken Clouds 200ft. Broken Clouds 1600ft.
Becoming from till Wind 90º 6kt. Visibility 10km or more. Broken Clouds 1700ft.

Nespracované: TAF ULAA 251700Z 2518/2618 13003MPS 9999 BKN017 TEMPO 2518/2603 VRB01MPS 0500 -SHRA FG BKN002 BKN016CB BECMG 2603/2605 09003MPS

Aktuálne satelitné snímky a snímky zrážok pre lokalitu 64.6°S 40.72°V

Značka polohy je umiestnená na64.6°S 40.72°V. [Viac]

Satelitné snímky zhotovované v reálnom čase využívajú viditeľné svetlo počas dňa a infračervené žiarenie počas noci. Vzhľadom na to, že infračervené žiarenie zisťuje teplotné rozdiely, snímka v noci nie je tmavá. Nízke oblaky a hmlu je, žiaľ, ťažké odlíšiť od prízemných teplôt, preto môžu byť počas noci takmer neviditeľné. Meteosat satelitné snímky pre Európu sú aktualizované v reálnom čase každých 5 minút. Snímky z GOES-16/GOES-17 (Severná a Južná Amerika) a Himawari (Ázia) sú aktualizované každých 10 minút.

Copyright 2021 EUMETSAT / meteoblue. / Copyright 2021 meteoblue

Radar a krátkodobá predpoveď zrážok pre 64.6°S 40.72°V

Mrholenie
Slabý
Mierne
Ťažké
Veľmi ťažké
Krúpy

Značka polohy je umiestnená na 64.6°S 40.72°V. Táto animácia ukazuje zrážky pozorované radarom za poslednú hodinu a tiež 1h predpoveď. Mrholenie alebo slabé sneženie môže byť pre radar neviditeľné. Intenzita zrážok je farebne označená od svetlomodrej po oranžovú.